EDT,Max TemperatureF,Mean TemperatureF,Min TemperatureF,Max Dew PointF,MeanDew PointF,Min DewpointF,Max Humidity, Mean Humidity, Min Humidity, Max Sea Level PressureIn, Mean Sea Level PressureIn, Min Sea Level PressureIn, Max VisibilityMiles, Mean VisibilityMiles, Min VisibilityMiles, Max Wind SpeedMPH, Mean Wind SpeedMPH, Max Gust SpeedMPH,PrecipitationIn, CloudCover, Events, WindDirDegrees
2012-10-1,65,60,54,59,54,49,89,83,71,29.92,29.85,29.78,10,10,4,15,7,20,0.24,7,Rain,92
2012-10-2,83,72,60,68,60,54,95,75,41,30.00,29.85,29.78,10,10,4,13,7,17,0.35,5,Rain,125
2012-10-3,74,66,59,62,59,56,93,79,54,30.22,30.13,30.00,10,10,7,6,0,,0.04,4,,275
2012-10-4,73,64,54,62,55,46,95,74,38,30.33,30.28,30.23,10,9,5,13,2,17,0.00,5,,274
2012-10-5,75,62,49,53,50,44,95,70,34,30.28,30.18,30.07,10,8,3,7,1,,0.00,0,,301
2012-10-6,62,56,51,56,50,44,93,82,74,30.09,30.05,30.01,10,9,2,12,2,17,0.00,6,Rain,318
2012-10-7,51,46,42,46,43,40,95,83,68,30.18,30.09,30.00,10,8,2,12,2,,0.31,6,Rain,35
2012-10-8,48,45,42,43,40,36,94,82,67,30.22,30.16,30.13,10,9,1,13,5,18,0.10,7,Rain,89
2012-10-9,58,52,44,46,43,42,91,77,56,30.18,30.12,30.07,10,10,3,7,2,,0.01,7,,60
2012-10-10,58,50,43,48,45,39,95,84,68,30.21,30.11,30.05,10,7,0,14,3,18,0.00,6,Fog,286
2012-10-11,65,50,34,39,34,25,93,64,23,30.30,30.25,30.22,10,10,5,9,2,,0.00,0,,232
2012-10-12,63,52,42,46,40,34,87,69,34,30.36,30.29,30.24,10,10,10,10,1,,0.00,4,,315
2012-10-13,70,57,44,49,42,38,85,62,39,30.40,30.33,30.26,10,10,10,15,6,17,0.00,0,,99
2012-10-14,73,60,48,53,48,42,82,63,45,30.27,30.14,29.99,10,10,10,12,4,18,0.00,2,,230
2012-10-15,65,58,51,58,47,35,94,65,35,29.98,29.92,29.87,10,9,3,15,6,24,0.51,5,Rain,295
2012-10-16,64,52,39,46,39,30,91,65,30,30.03,29.97,29.91,10,10,5,10,3,,0.03,0,,307
2012-10-17,72,56,41,49,45,40,100,70,40,30.00,29.92,29.83,10,10,10,10,2,,0.00,0,,155
2012-10-18,74,61,48,60,52,45,91,73,50,29.84,29.79,29.71,10,10,10,20,4,28,0.02,3,Rain-Thunderstorm,259
2012-10-19,65,53,41,52,40,32,99,58,30,29.83,29.76,29.69,10,10,7,17,4,28,0.00,3,,270
2012-10-20,57,51,45,44,42,40,92,68,55,30.02,29.89,29.78,10,10,10,14,4,20,0.00,8,,291
2012-10-21,64,52,40,46,44,40,100,75,49,30.19,30.14,30.03,10,10,7,10,1,,0.00,3,,279
2012-10-22,75,58,42,52,48,43,100,73,39,30.28,30.22,30.18,10,10,7,7,1,,0.00,0,,23
2012-10-23,75,62,49,56,52,48,97,75,48,30.23,30.18,30.15,10,10,7,12,2,,0.00,0,,252
2012-10-24,77,63,49,57,51,46,100,72,32,30.26,30.19,30.14,10,10,2,5,1,,0.00,0,,200
2012-10-25,81,66,50,54,50,45,89,61,28,30.18,30.14,30.08,10,10,10,8,3,,0.00,0,,127
2012-10-26,78,66,53,60,54,50,97,71,39,30.15,30.08,30.00,10,10,10,12,3,,0.00,2,,102
2012-10-27,66,58,48,58,53,46,99,88,72,30.00,29.93,29.89,10,10,7,13,6,25,0.00,5,Rain,24
2012-10-28,49,44,38,48,44,36,97,92,87,29.93,29.86,29.81,10,9,5,12,3,18,0.36,8,Rain,337
2012-10-29,38,36,35,37,36,34,100,97,93,29.88,29.74,29.59,7,4,2,14,7,26,0.22,8,Rain-Snow,310
2012-10-30,37,35,33,37,35,34,100,96,93,29.68,29.54,29.48,10,5,1,15,10,24,0.11,8,Rain-Snow,274
2012-10-31,42,40,37,38,37,35,100,88,76,29.82,29.74,29.67,10,10,7,16,8,22,0.01,8,Rain,278